Time;durP1;ratioP1;P1;durP2;ratioP2;P2;SDS_P1;SDS_P2;PMS_P1;PMS_P2;Temp;Humidity;BMP_temperature;BMP_pressure;BME280_temperature;BME280_humidity;BME280_pressure;Samples;Min_cycle;Max_cycle;Signal;HPM_P1;HPM_P2
2021/04/07 00:00:26;;;;;;;7.25;2.45;;;;;;;23.35;49.08;99080.03;5072221;28;20060;-63
2021/04/07 00:02:52;;;;;;;5.18;1.90;;;;;;;23.34;49.37;99080.25;5072460;28;20024;-63
2021/04/07 00:05:21;;;;;;;6.10;2.30;;;;;;;23.26;48.96;99089.72;5072281;28;20481;-63
2021/04/07 00:07:49;;;;;;;7.45;2.58;;;;;;;23.21;48.92;99080.56;5072474;28;20103;-62
2021/04/07 00:10:15;;;;;;;11.52;3.00;;;;;;;23.16;48.31;99077.72;5072190;28;20056;-62
2021/04/07 00:12:42;;;;;;;6.03;2.50;;;;;;;23.14;48.31;99090.84;5072198;28;20055;-63
2021/04/07 00:15:17;;;;;;;7.97;2.55;;;;;;;23.08;47.67;99101.72;5072191;28;20135;-63
2021/04/07 00:17:42;;;;;;;5.90;2.50;;;;;;;23.05;47.70;99088.50;5072387;28;20032;-63
2021/04/07 00:20:21;;;;;;;5.75;2.38;;;;;;;23.07;47.54;99097.31;5072105;28;20380;-62
2021/04/07 00:22:47;;;;;;;5.82;2.20;;;;;;;23.05;47.92;99104.94;5072320;28;20048;-61
2021/04/07 00:25:13;;;;;;;7.85;1.98;;;;;;;23.05;47.68;99106.84;5071993;28;20067;-62
2021/04/07 00:27:40;;;;;;;9.48;2.50;;;;;;;23.03;48.19;99101.63;5084865;28;20116;-62
2021/04/07 00:30:07;;;;;;;5.10;2.05;;;;;;;23.02;48.16;99104.59;5092250;28;20504;-62
2021/04/07 00:32:33;;;;;;;7.57;2.55;;;;;;;23.01;47.97;99109.25;5092268;28;20035;-63
2021/04/07 00:34:58;;;;;;;5.57;1.95;;;;;;;23.01;48.90;99112.00;5092055;28;20028;-62
2021/04/07 00:37:23;;;;;;;5.43;2.15;;;;;;;23.00;49.31;99107.56;5092188;28;20031;-62
2021/04/07 00:39:49;;;;;;;6.07;2.35;;;;;;;23.01;48.64;99112.00;5092325;28;20103;-62
2021/04/07 00:42:14;;;;;;;8.45;2.55;;;;;;;23.01;50.04;99114.72;5084913;28;20447;-62
2021/04/07 00:44:40;;;;;;;6.15;1.75;;;;;;;23.01;50.75;99114.72;5076261;28;20028;-62
2021/04/07 00:47:06;;;;;;;8.00;2.25;;;;;;;23.02;49.97;99113.66;5075868;28;20079;-63
2021/04/07 00:49:31;;;;;;;5.38;2.00;;;;;;;23.01;50.63;99117.47;5076219;28;20044;-61
2021/04/07 00:51:56;;;;;;;5.68;1.70;;;;;;;23.03;50.30;99111.75;5076111;28;20409;-61
2021/04/07 00:54:22;;;;;;;6.72;2.08;;;;;;;23.03;49.99;99112.56;5075820;28;20017;-62
2021/04/07 00:56:48;;;;;;;8.52;2.42;;;;;;;23.06;49.85;99116.75;5075989;28;20025;-62
2021/04/07 00:59:19;;;;;;;7.47;2.28;;;;;;;23.07;49.97;99118.41;5075608;28;20464;-63
2021/04/07 01:01:45;;;;;;;6.25;2.35;;;;;;;23.08;49.66;99114.59;5075973;28;20487;-62
2021/04/07 01:04:11;;;;;;;5.35;2.17;;;;;;;23.13;50.17;99116.59;5075566;28;20036;-61
2021/04/07 01:06:38;;;;;;;8.75;2.00;;;;;;;23.16;49.53;99110.59;5075904;28;20059;-61
2021/04/07 01:09:04;;;;;;;7.88;2.33;;;;;;;23.16;49.93;99111.44;5075634;28;20025;-62
2021/04/07 01:11:29;;;;;;;5.95;1.83;;;;;;;23.09;49.45;99116.25;5075431;28;20043;-62
2021/04/07 01:13:55;;;;;;;6.07;2.53;;;;;;;23.04;50.67;99119.72;5075750;28;20017;-62
2021/04/07 01:16:21;;;;;;;6.82;2.53;;;;;;;23.00;50.74;99107.56;5075345;28;20031;-61
2021/04/07 01:18:46;;;;;;;6.10;2.30;;;;;;;23.04;51.31;99114.25;5075532;28;20107;-61
2021/04/07 01:21:12;;;;;;;8.07;3.45;;;;;;;23.13;51.22;99111.09;5075188;28;20115;-62
2021/04/07 01:23:37;;;;;;;8.85;3.13;;;;;;;23.15;50.47;99115.25;5075552;28;20052;-62
2021/04/07 01:26:03;;;;;;;9.48;3.33;;;;;;;23.20;50.60;99109.06;5075319;28;20028;-62
2021/04/07 01:28:29;;;;;;;8.25;2.90;;;;;;;23.23;50.81;99114.06;5075163;28;20020;-63
2021/04/07 01:30:54;;;;;;;8.85;2.60;;;;;;;23.25;49.66;99120.94;5075293;28;20073;-61
2021/04/07 01:33:24;;;;;;;6.53;2.70;;;;;;;23.27;49.92;99115.22;5075141;28;20474;-62
2021/04/07 01:35:50;;;;;;;9.45;3.15;;;;;;;23.25;50.06;99117.38;5075129;28;20044;-62
2021/04/07 01:38:17;;;;;;;7.88;2.15;;;;;;;23.26;49.47;99121.78;5074814;28;20024;-61
2021/04/07 01:40:43;;;;;;;6.38;2.42;;;;;;;23.25;49.27;99125.59;5075273;28;20162;-62
2021/04/07 01:43:10;;;;;;;9.15;2.50;;;;;;;23.18;50.09;99124.91;5074416;28;20071;-62
2021/04/07 01:45:36;;;;;;;9.15;2.75;;;;;;;23.05;50.08;99121.38;5074871;28;20026;-62
2021/04/07 01:48:02;;;;;;;4.28;1.67;;;;;;;23.00;49.91;99134.97;5074955;28;20456;-62
2021/04/07 01:50:27;;;;;;;9.00;2.47;;;;;;;22.91;49.49;99136.44;5074894;28;20135;-62
2021/04/07 01:52:52;;;;;;;6.20;2.20;;;;;;;22.88;49.91;99136.09;5074841;28;20387;-61
2021/04/07 01:55:18;;;;;;;8.68;2.28;;;;;;;22.80;49.43;99137.25;5074969;28;20020;-63
2021/04/07 01:57:43;;;;;;;8.68;2.42;;;;;;;22.79;49.21;99135.59;5074922;28;20089;-63
2021/04/07 02:00:13;;;;;;;5.78;2.15;;;;;;;22.76;49.45;99139.66;5074471;28;20040;-62
2021/04/07 02:02:39;;;;;;;6.20;2.08;;;;;;;22.74;48.62;99141.81;5074911;28;20068;-62
2021/04/07 02:05:05;;;;;;;6.95;2.40;;;;;;;22.72;48.25;99143.13;5074448;28;20478;-62
2021/04/07 02:07:30;;;;;;;3.67;1.73;;;;;;;22.70;48.47;99154.31;5074695;28;20035;-62
2021/04/07 02:09:55;;;;;;;6.63;2.20;;;;;;;22.66;47.90;99153.09;5074702;28;20024;-63
2021/04/07 02:12:21;;;;;;;4.45;1.90;;;;;;;22.68;48.19;99153.72;5073881;28;20487;-62
2021/04/07 02:14:46;;;;;;;4.60;1.60;;;;;;;22.66;48.37;99158.59;5074644;28;20024;-62
2021/04/07 02:17:11;;;;;;;7.13;2.33;;;;;;;22.66;48.28;99160.50;5074241;28;20055;-62
2021/04/07 02:19:37;;;;;;;5.28;2.00;;;;;;;22.66;48.30;99160.50;5074515;28;20062;-62
2021/04/07 02:22:13;;;;;;;5.95;2.22;;;;;;;22.65;48.19;99165.13;5074254;28;20467;-63
2021/04/07 02:24:41;;;;;;;6.00;2.05;;;;;;;22.62;47.87;99171.09;5074451;28;20060;-63
2021/04/07 02:27:18;;;;;;;6.63;2.17;;;;;;;22.62;47.45;99164.78;5080646;28;20020;-63
2021/04/07 02:29:46;;;;;;;6.50;2.30;;;;;;;22.61;47.92;99168.59;5074397;28;20023;-62
2021/04/07 02:32:12;;;;;;;6.53;1.95;;;;;;;22.61;47.97;99168.59;5073946;28;20529;-61
2021/04/07 02:34:39;;;;;;;8.63;2.80;;;;;;;22.62;48.07;99175.75;5074284;28;20032;-62
2021/04/07 02:37:05;;;;;;;7.43;2.72;;;;;;;22.60;48.65;99172.41;5073791;28;20048;-62
2021/04/07 02:39:30;;;;;;;7.10;2.80;;;;;;;22.59;49.19;99176.22;5074048;28;20020;-63
2021/04/07 02:41:55;;;;;;;5.60;2.15;;;;;;;22.61;49.23;99172.16;5073851;28;20034;-63
2021/04/07 02:44:21;;;;;;;7.15;2.60;;;;;;;22.60;49.62;99170.50;5073728;28;20476;-62
2021/04/07 02:46:47;;;;;;;6.47;1.88;;;;;;;22.63;50.03;99171.94;5074000;28;20398;-62
2021/04/07 02:49:12;;;;;;;5.10;1.98;;;;;;;22.63;50.19;99182.88;5073576;28;20027;-62
2021/04/07 02:51:37;;;;;;;5.55;2.00;;;;;;;22.60;50.52;99180.63;5073896;28;20531;-62
2021/04/07 02:54:03;;;;;;;7.80;2.50;;;;;;;22.61;51.27;99106.44;5073628;28;20035;-62
2021/04/07 02:56:31;;;;;;;6.68;2.00;;;;;;;22.63;51.24;99101.56;5073612;28;20077;-62
2021/04/07 02:58:58;;;;;;;7.82;2.28;;;;;;;22.63;51.45;99084.28;5073779;28;20021;-62
2021/04/07 03:01:24;;;;;;;5.85;2.00;;;;;;;22.66;50.85;99223.47;5073461;28;20032;-61
2021/04/07 03:03:49;;;;;;;4.93;1.88;;;;;;;22.65;51.17;99195.25;5073625;28;20375;-62
2021/04/07 03:06:15;;;;;;;6.38;2.00;;;;;;;22.66;51.11;99193.34;5072629;28;20020;-63
2021/04/07 03:08:40;;;;;;;6.47;2.03;;;;;;;22.69;50.71;99199.22;5073527;28;20027;-63
2021/04/07 03:11:05;;;;;;;6.22;2.65;;;;;;;22.70;50.88;99200.06;5072942;28;20383;-63
2021/04/07 03:13:31;;;;;;;5.25;2.33;;;;;;;22.71;51.22;99179.81;5073386;28;20024;-62
2021/04/07 03:15:56;;;;;;;7.22;1.83;;;;;;;22.74;50.86;99190.28;5073305;28;20028;-62
2021/04/07 03:18:21;;;;;;;7.78;2.40;;;;;;;22.78;51.05;99197.75;5072998;28;20047;-62
2021/04/07 03:20:47;;;;;;;6.30;2.33;;;;;;;22.83;50.95;99188.84;5073320;28;20032;-63
2021/04/07 03:23:12;;;;;;;7.53;2.70;;;;;;;22.89;50.71;99195.28;5073163;28;20039;-63
2021/04/07 03:25:37;;;;;;;6.57;2.47;;;;;;;22.81;50.53;99196.44;5073458;28;20486;-62
2021/04/07 03:28:03;;;;;;;6.70;1.98;;;;;;;22.75;50.64;99202.88;5089042;28;20468;-62
2021/04/07 03:30:47;;;;;;;7.72;2.72;;;;;;;22.69;52.01;99203.84;5093240;28;20032;-62
2021/04/07 03:33:13;;;;;;;5.20;1.90;;;;;;;22.68;52.15;99210.41;5092552;28;20541;-62
2021/04/07 03:35:38;;;;;;;8.15;2.83;;;;;;;22.71;52.68;99212.66;5072815;28;20048;-62
2021/04/07 03:38:03;;;;;;;6.68;2.60;;;;;;;22.69;52.19;99212.91;5072768;28;20368;-63
2021/04/07 03:40:29;;;;;;;7.30;2.28;;;;;;;22.66;52.34;99209.78;5072762;28;20028;-63
2021/04/07 03:42:54;;;;;;;7.10;2.75;;;;;;;22.60;51.27;99210.75;5072563;28;20027;-62
2021/04/07 03:45:19;;;;;;;6.72;2.13;;;;;;;22.56;50.24;99206.84;5072647;28;20042;-62
2021/04/07 03:47:45;;;;;;;6.15;2.08;;;;;;;22.51;50.45;99213.88;5072829;28;20024;-62
2021/04/07 03:50:11;;;;;;;6.72;2.40;;;;;;;22.50;49.89;99220.38;5072520;28;20031;-63
2021/04/07 03:52:36;;;;;;;5.72;2.15;;;;;;;22.48;49.32;99222.53;5072751;28;20283;-62
2021/04/07 03:55:02;;;;;;;8.43;2.33;;;;;;;22.48;50.17;99225.25;5072508;28;20027;-61
2021/04/07 03:57:28;;;;;;;5.53;2.10;;;;;;;22.47;49.59;99228.25;5072603;28;20036;-62
2021/04/07 03:59:53;;;;;;;6.60;2.22;;;;;;;22.46;49.27;99232.88;5072716;28;20032;-62
2021/04/07 04:02:18;;;;;;;5.70;2.10;;;;;;;23.35;47.69;99225.34;5072211;28;20102;-63
2021/04/07 04:04:44;;;;;;;5.88;1.95;;;;;;;23.85;45.93;99230.19;5072606;28;20028;-62
2021/04/07 04:07:09;;;;;;;6.55;1.95;;;;;;;24.19;45.90;99236.56;5072087;28;20519;-62
2021/04/07 04:09:34;;;;;;;5.72;1.90;;;;;;;24.46;44.97;99235.94;5072543;28;20523;-62
2021/04/07 04:11:59;;;;;;;5.30;3.03;;;;;;;24.67;44.42;99234.31;5072099;28;20040;-62
2021/04/07 04:14:25;;;;;;;8.13;2.83;;;;;;;24.87;44.27;99235.50;5072231;28;20451;-63
2021/04/07 04:16:50;;;;;;;5.00;2.35;;;;;;;24.97;43.76;99239.44;5071494;28;20036;-63
2021/04/07 04:19:15;;;;;;;8.25;2.33;;;;;;;25.02;44.04;99247.78;5072052;28;20028;-63
2021/04/07 04:21:40;;;;;;;4.40;2.13;;;;;;;25.14;43.78;99248.53;5054424;28;20448;-62
2021/04/07 04:24:06;;;;;;;6.05;2.17;;;;;;;25.14;43.01;99248.53;5072079;28;20024;-62
2021/04/07 04:26:31;;;;;;;6.95;2.28;;;;;;;25.18;42.72;99244.16;5075375;28;20027;-63
2021/04/07 04:28:56;;;;;;;7.75;1.90;;;;;;;25.24;43.01;99250.59;5092330;28;20024;-62
2021/04/07 04:31:22;;;;;;;5.55;2.17;;;;;;;25.27;42.47;99245.41;5092612;28;20031;-62
2021/04/07 04:33:48;;;;;;;9.90;2.90;;;;;;;25.30;42.59;99263.31;5092412;28;20024;-62
2021/04/07 04:36:13;;;;;;;5.32;2.40;;;;;;;25.36;42.37;99270.53;5091887;28;20139;-62
2021/04/07 04:38:38;;;;;;;5.93;2.28;;;;;;;25.35;42.03;99272.44;5092607;28;20024;-62
2021/04/07 04:41:03;;;;;;;6.22;2.20;;;;;;;25.39;42.59;99273.63;5085347;28;20028;-63
2021/04/07 04:43:29;;;;;;;6.43;2.45;;;;;;;25.40;42.52;99283.53;5071959;28;20055;-63
2021/04/07 04:45:54;;;;;;;9.98;2.20;;;;;;;25.45;42.41;99291.84;5072133;28;20066;-62
2021/04/07 04:48:19;;;;;;;7.57;2.30;;;;;;;25.52;41.70;99288.06;5071823;28;20523;-62
2021/04/07 04:50:44;;;;;;;6.45;2.33;;;;;;;25.53;42.75;99300.72;5072145;28;20106;-62
2021/04/07 04:53:10;;;;;;;6.45;2.30;;;;;;;25.53;42.55;99303.47;5071695;28;20028;-63
2021/04/07 04:55:35;;;;;;;7.32;2.47;;;;;;;25.60;43.00;99306.91;5072102;28;20476;-62
2021/04/07 04:58:00;;;;;;;4.55;2.00;;;;;;;25.62;43.27;99311.06;5071822;28;20052;-62
2021/04/07 05:00:26;;;;;;;7.65;2.63;;;;;;;25.63;43.54;99295.38;5071724;28;20105;-62
2021/04/07 05:02:51;;;;;;;9.57;2.63;;;;;;;25.71;43.89;99308.72;5071886;28;20036;-64
2021/04/07 05:05:16;;;;;;;5.38;1.98;;;;;;;25.80;43.80;99312.69;5071784;28;20158;-63
2021/04/07 05:07:41;;;;;;;8.95;2.55;;;;;;;25.82;44.54;99321.50;5071978;28;20029;-63
2021/04/07 05:10:07;;;;;;;8.13;3.03;;;;;;;25.85;44.76;99309.97;5071742;28;20070;-62
2021/04/07 05:12:33;;;;;;;9.80;2.92;;;;;;;25.90;44.90;99323.81;5071320;28;20070;-61
2021/04/07 05:14:58;;;;;;;7.45;2.72;;;;;;;25.91;45.09;99325.47;5071671;28;20021;-62
2021/04/07 05:17:24;;;;;;;9.55;2.60;;;;;;;25.88;45.28;99323.25;5071771;28;20116;-63
2021/04/07 05:19:49;;;;;;;6.88;2.80;;;;;;;25.98;45.22;99326.09;5071776;28;20048;-63
2021/04/07 05:22:14;;;;;;;8.73;3.45;;;;;;;25.97;45.50;99318.94;5071545;28;20391;-62
2021/04/07 05:24:40;;;;;;;9.80;2.78;;;;;;;26.05;45.40;99332.25;5071773;28;20024;-61
2021/04/07 05:27:06;;;;;;;7.72;3.15;;;;;;;26.06;44.78;99339.44;5079354;28;20058;-62
2021/04/07 05:29:31;;;;;;;7.68;3.30;;;;;;;26.05;45.45;99343.28;5094799;28;20017;-62
2021/04/07 05:31:56;;;;;;;8.60;2.45;;;;;;;26.11;44.80;99341.41;5095657;28;20032;-63
2021/04/07 05:34:21;;;;;;;7.90;2.83;;;;;;;26.16;45.54;99348.88;5095400;28;20015;-62
2021/04/07 05:36:47;;;;;;;9.07;2.33;;;;;;;26.22;45.29;99350.63;5095447;28;20414;-62
2021/04/07 05:39:12;;;;;;;9.90;3.08;;;;;;;26.22;44.89;99348.69;5095220;28;20056;-62
2021/04/07 05:41:37;;;;;;;10.27;2.78;;;;;;;26.27;45.10;99350.66;5081864;28;20472;-62
2021/04/07 05:44:03;;;;;;;9.70;2.45;;;;;;;26.18;45.67;99360.47;5075053;28;20150;-63
2021/04/07 05:46:29;;;;;;;8.80;3.47;;;;;;;26.19;45.52;99365.72;5074946;28;20206;-62
2021/04/07 05:48:54;;;;;;;6.50;2.50;;;;;;;26.20;45.14;99361.03;5075065;28;20099;-62
2021/04/07 05:51:19;;;;;;;9.45;2.42;;;;;;;26.11;44.97;99368.09;5074856;28;20534;-62
2021/04/07 05:53:45;;;;;;;7.72;1.88;;;;;;;26.12;44.33;99372.53;5074588;28;20278;-63
2021/04/07 05:56:10;;;;;;;7.28;2.25;;;;;;;26.13;44.50;99376.94;5074702;28;20021;-63
2021/04/07 05:58:36;;;;;;;6.40;2.50;;;;;;;26.16;43.82;99381.91;5074882;28;20379;-62
2021/04/07 06:01:01;;;;;;;7.18;2.67;;;;;;;26.14;44.22;99389.63;5074640;28;20021;-62
2021/04/07 06:03:27;;;;;;;8.95;2.78;;;;;;;26.11;43.73;99370.84;5073432;28;20033;-62
2021/04/07 06:05:52;;;;;;;6.55;2.35;;;;;;;26.15;43.36;99394.03;5074798;28;20464;-62
2021/04/07 06:08:18;;;;;;;8.30;2.63;;;;;;;26.09;44.03;99382.97;5074422;28;20052;-62
2021/04/07 06:10:48;;;;;;;5.15;1.88;;;;;;;26.13;43.52;99394.28;5074368;28;20025;-63
2021/04/07 06:13:15;;;;;;;5.57;2.17;;;;;;;26.12;43.53;99400.06;5074623;28;20021;-62
2021/04/07 06:15:41;;;;;;;7.53;2.38;;;;;;;26.14;43.47;99395.97;5074624;28;20024;-62
2021/04/07 06:18:08;;;;;;;6.50;2.60;;;;;;;26.15;43.41;99402.28;5073246;28;20486;-62
2021/04/07 06:20:36;;;;;;;7.35;2.50;;;;;;;26.17;43.73;99417.47;5074006;28;20495;-62
2021/04/07 06:23:04;;;;;;;7.90;2.83;;;;;;;26.14;43.65;99412.47;5055381;28;20032;-63
2021/04/07 06:25:30;;;;;;;6.53;2.63;;;;;;;26.14;44.06;99408.88;5072206;28;20052;-62
2021/04/07 06:27:57;;;;;;;13.25;3.25;;;;;;;26.15;43.52;99432.59;5075288;28;20052;-62
2021/04/07 06:30:40;;;;;;;8.57;2.63;;;;;;;26.08;43.69;99433.63;5070811;28;20286;-62
2021/04/07 06:33:09;;;;;;;5.45;1.92;;;;;;;26.05;43.03;99436.06;5073914;28;20032;-62
2021/04/07 06:35:35;;;;;;;9.18;2.72;;;;;;;26.08;43.61;99436.38;5072928;28;20051;-62
2021/04/07 06:38:00;;;;;;;8.48;2.65;;;;;;;26.13;43.47;99426.50;5073114;28;20115;-62
2021/04/07 06:40:28;;;;;;;6.22;2.10;;;;;;;26.13;43.32;99435.59;5071696;28;20032;-62
2021/04/07 06:42:53;;;;;;;8.82;2.70;;;;;;;26.17;42.70;99433.16;5070160;28;20028;-62
2021/04/07 06:45:19;;;;;;;6.97;2.47;;;;;;;26.15;42.33;99449.09;5073108;28;20031;-62
2021/04/07 06:47:44;;;;;;;7.03;2.42;;;;;;;26.17;43.01;99449.69;5072875;28;20025;-64
2021/04/07 06:50:10;;;;;;;7.40;2.40;;;;;;;26.18;43.36;99456.84;5068878;28;20025;-62
2021/04/07 06:52:35;;;;;;;5.20;2.28;;;;;;;26.19;43.99;99453.00;5068271;28;20056;-63
2021/04/07 06:55:01;;;;;;;8.48;2.53;;;;;;;26.24;43.79;99442.91;5070905;28;20471;-62
2021/04/07 06:57:26;;;;;;;10.02;2.80;;;;;;;26.24;44.56;99455.84;5071613;28;20049;-62
2021/04/07 06:59:51;;;;;;;5.90;2.33;;;;;;;26.28;44.65;99465.25;5070142;28;20016;-63
2021/04/07 07:02:16;;;;;;;9.20;2.60;;;;;;;26.33;44.95;99465.31;5070561;28;20058;-62
2021/04/07 07:04:43;;;;;;;7.28;2.30;;;;;;;26.31;45.08;99456.47;5068388;28;20020;-62
2021/04/07 07:07:09;;;;;;;6.78;2.42;;;;;;;26.38;45.62;99469.00;5065571;28;20463;-62
2021/04/07 07:09:34;;;;;;;6.88;2.78;;;;;;;26.39;45.82;99461.56;5068712;28;20021;-63
2021/04/07 07:12:01;;;;;;;10.13;3.33;;;;;;;26.42;45.54;99469.31;5070100;28;20039;-63
2021/04/07 07:14:26;;;;;;;5.90;2.58;;;;;;;26.44;44.99;99469.91;5070088;28;20636;-62
2021/04/07 07:16:53;;;;;;;7.85;2.53;;;;;;;26.37;45.55;99480.25;5072876;28;20112;-62
2021/04/07 07:19:25;;;;;;;6.85;2.78;;;;;;;26.43;46.57;99481.19;5073236;28;20028;-62
2021/04/07 07:21:58;;;;;;;8.55;2.40;;;;;;;26.34;46.10;99483.50;5072498;28;20032;-63
2021/04/07 07:24:27;;;;;;;6.85;2.55;;;;;;;26.32;45.50;99491.19;5079145;28;20043;-63
2021/04/07 07:26:53;;;;;;;8.68;2.58;;;;;;;26.31;45.15;99495.03;5075145;28;20349;-62
2021/04/07 07:29:29;;;;;;;8.52;2.72;;;;;;;26.26;44.92;99486.72;5070918;28;20073;-62
2021/04/07 07:32:03;;;;;;;5.40;2.05;;;;;;;26.24;44.76;99494.41;5054247;28;20153;-62
2021/04/07 07:34:29;;;;;;;10.75;2.45;;;;;;;26.24;44.69;99494.41;5074453;28;20553;-62
2021/04/07 07:36:55;;;;;;;8.38;2.53;;;;;;;26.22;43.92;99496.59;5070478;28;20157;-62
2021/04/07 07:39:32;;;;;;;8.27;2.95;;;;;;;26.15;44.40;99495.94;5066765;28;20029;-63
2021/04/07 07:42:07;;;;;;;7.97;2.67;;;;;;;26.23;44.31;99509.28;5070799;28;20016;-63
2021/04/07 07:44:37;;;;;;;7.13;2.85;;;;;;;26.19;43.90;99506.19;5070066;28;20490;-62
2021/04/07 07:47:23;;;;;;;8.07;2.15;;;;;;;26.25;43.75;99523.63;5067097;28;20028;-62
2021/04/07 07:49:59;;;;;;;7.85;2.83;;;;;;;26.22;43.50;99524.13;5068722;28;20367;-62
2021/04/07 07:52:29;;;;;;;7.63;2.65;;;;;;;26.21;43.26;99516.97;5067935;28;20607;-64
2021/04/07 07:54:55;;;;;;;7.70;2.35;;;;;;;26.20;43.58;99529.03;5052459;28;20032;-63
2021/04/07 07:57:20;;;;;;;6.85;2.38;;;;;;;26.28;43.67;99525.88;5069179;28;20035;-63
2021/04/07 07:59:45;;;;;;;6.65;1.88;;;;;;;26.24;43.37;99527.47;5072000;28;20380;-62
2021/04/07 08:02:16;;;;;;;9.15;3.05;;;;;;;26.29;43.84;99530.28;5072177;28;20353;-62
2021/04/07 08:04:47;;;;;;;9.38;2.75;;;;;;;26.26;43.86;99547.31;5074531;28;20016;-62
2021/04/07 08:07:14;;;;;;;7.70;2.10;;;;;;;26.28;43.48;99561.66;5069039;28;20052;-62
2021/04/07 08:09:40;;;;;;;6.72;2.72;;;;;;;26.24;43.64;99555.00;5072836;28;20037;-62
2021/04/07 08:12:08;;;;;;;6.20;2.60;;;;;;;26.25;43.01;99562.19;5072020;28;20133;-63
2021/04/07 08:14:34;;;;;;;8.32;2.97;;;;;;;26.30;43.27;99565.00;5053742;28;20029;-62
2021/04/07 08:17:00;;;;;;;8.75;2.78;;;;;;;26.33;43.34;99570.81;5072565;28;20520;-61
2021/04/07 08:19:25;;;;;;;9.77;2.70;;;;;;;26.35;43.62;99567.84;5054933;28;20020;-61
2021/04/07 08:21:53;;;;;;;9.50;2.75;;;;;;;26.37;43.87;99568.44;5073361;28;20024;-62
2021/04/07 08:24:19;;;;;;;8.55;2.78;;;;;;;26.43;44.08;99581.19;5073061;28;20115;-62
2021/04/07 08:26:45;;;;;;;6.85;2.88;;;;;;;26.44;44.21;99582.88;5072763;28;20107;-62
2021/04/07 08:29:10;;;;;;;8.82;2.83;;;;;;;26.45;44.39;99592.81;5070466;28;20019;-62
2021/04/07 08:31:37;;;;;;;6.93;2.70;;;;;;;26.49;44.48;99591.19;5071681;28;20044;-62
2021/04/07 08:34:05;;;;;;;8.10;2.55;;;;;;;26.49;44.51;99591.19;5070525;28;20440;-62
2021/04/07 08:36:31;;;;;;;8.55;2.50;;;;;;;26.38;43.37;99594.91;5071887;28;20511;-61
2021/04/07 08:39:03;;;;;;;9.13;2.53;;;;;;;26.45;43.29;99601.06;5070759;28;20050;-61
2021/04/07 08:41:30;;;;;;;8.52;2.92;;;;;;;26.38;44.01;99600.44;5071562;28;20024;-61
2021/04/07 08:43:57;;;;;;;6.93;2.75;;;;;;;26.35;43.53;99603.66;5070883;28;20044;-63
2021/04/07 08:46:24;;;;;;;6.68;2.45;;;;;;;26.34;43.82;99615.75;5056742;28;20047;-63
2021/04/07 08:48:50;;;;;;;6.47;2.10;;;;;;;26.32;43.28;99626.19;5071825;28;20036;-62
2021/04/07 08:51:19;;;;;;;7.07;2.88;;;;;;;26.31;43.24;99621.75;5070742;28;20024;-62
2021/04/07 08:53:49;;;;;;;9.73;3.10;;;;;;;26.32;43.75;99618.75;5068169;28;20021;-63
2021/04/07 08:56:17;;;;;;;8.38;3.08;;;;;;;26.34;43.28;99618.50;5051527;28;20046;-63
2021/04/07 08:58:49;;;;;;;6.47;2.38;;;;;;;26.33;43.24;99627.84;5039259;28;20020;-62
2021/04/07 09:01:33;;;;;;;8.50;2.97;;;;;;;26.34;43.45;99638.63;5071430;28;20028;-62
2021/04/07 09:04:10;;;;;;;6.70;2.33;;;;;;;26.28;43.95;99638.81;5073435;28;20089;-63
2021/04/07 09:06:59;;;;;;;7.25;2.55;;;;;;;26.37;44.25;99637.31;5072982;28;20078;-63
2021/04/07 09:09:25;;;;;;;8.32;2.88;;;;;;;26.38;43.97;99645.34;5067590;28;20349;-63
2021/04/07 09:11:52;;;;;;;7.68;3.15;;;;;;;26.36;44.46;99638.38;5067736;28;20038;-67
2021/04/07 09:14:18;;;;;;;5.90;2.25;;;;;;;26.46;44.45;99657.84;5083797;28;20047;-66
2021/04/07 09:16:44;;;;;;;7.22;2.90;;;;;;;26.45;44.94;99664.44;5084251;28;20121;-66
2021/04/07 09:19:22;;;;;;;9.18;2.97;;;;;;;26.46;45.00;99676.28;5073584;28;20482;-66
2021/04/07 09:22:06;;;;;;;7.00;2.63;;;;;;;26.42;44.80;99672.38;5059023;28;20394;-67
2021/04/07 09:24:44;;;;;;;5.32;2.28;;;;;;;26.47;45.43;99673.28;5074087;28;20028;-67
2021/04/07 09:27:24;;;;;;;9.57;3.47;;;;;;;26.43;45.36;99674.88;5061272;28;20089;-66
2021/04/07 09:29:50;;;;;;;7.00;2.72;;;;;;;26.49;44.88;99690.41;5082833;28;20017;-66
2021/04/07 09:32:18;;;;;;;8.02;2.83;;;;;;;26.54;44.95;99679.47;5073259;28;20024;-65
2021/04/07 09:34:44;;;;;;;7.47;2.45;;;;;;;26.57;45.23;99687.22;5073259;28;20031;-66
2021/04/07 09:37:10;;;;;;;7.22;2.50;;;;;;;26.58;45.25;99694.41;5056277;28;20063;-65
2021/04/07 09:39:37;;;;;;;10.88;3.05;;;;;;;26.58;44.91;99697.16;5075926;28;20103;-65
2021/04/07 09:42:03;;;;;;;5.38;2.33;;;;;;;26.44;45.26;99701.34;5073231;28;20038;-66
2021/04/07 09:44:28;;;;;;;6.72;2.50;;;;;;;26.42;44.75;99699.94;5070094;28;20109;-66
2021/04/07 09:46:56;;;;;;;7.35;2.70;;;;;;;26.36;44.69;99707.28;5074158;28;20013;-66
2021/04/07 09:49:29;;;;;;;5.93;2.33;;;;;;;26.37;44.51;99700.69;5072484;28;20043;-66
2021/04/07 09:51:55;;;;;;;7.80;2.95;;;;;;;26.37;44.21;99709.81;5069168;28;20031;-66
2021/04/07 09:54:29;;;;;;;5.85;2.47;;;;;;;26.45;43.95;99705.78;5073365;28;20031;-66
2021/04/07 09:57:01;;;;;;;10.23;2.85;;;;;;;26.37;44.37;99719.97;5072034;28;20033;-66
2021/04/07 09:59:38;;;;;;;8.35;3.30;;;;;;;26.38;43.66;99722.50;5072763;28;20333;-67
2021/04/07 10:02:09;;;;;;;7.15;2.25;;;;;;;26.38;43.77;99714.22;5074064;28;20024;-66
2021/04/07 10:04:43;;;;;;;8.82;3.67;;;;;;;26.37;43.83;99715.31;5055707;28;20028;-65
2021/04/07 10:07:09;;;;;;;;;;;;;;;26.36;43.69;99721.06;5056929;28;20378;-65
2021/04/07 10:09:34;;;;;;;9.43;2.83;;;;;;;26.47;44.04;99719.31;5074088;28;20031;-66
2021/04/07 10:12:00;;;;;;;8.35;2.55;;;;;;;26.47;43.50;99720.13;5071860;28;20033;-66
2021/04/07 10:14:26;;;;;;;7.43;3.05;;;;;;;26.45;43.77;99711.28;5072893;28;20050;-65
2021/04/07 10:16:51;;;;;;;8.27;3.10;;;;;;;26.47;43.32;99719.31;5074167;28;20024;-66
2021/04/07 10:19:16;;;;;;;9.75;2.95;;;;;;;26.42;43.56;99717.31;5072637;28;20067;-65
2021/04/07 10:21:43;;;;;;;10.43;3.47;;;;;;;26.47;43.29;99728.41;5073692;28;20439;-66
2021/04/07 10:24:09;;;;;;;6.38;2.40;;;;;;;26.48;43.34;99738.34;5073032;28;20078;-66
2021/04/07 10:26:44;;;;;;;7.45;2.50;;;;;;;26.54;43.56;99740.09;5073654;28;20489;-66
2021/04/07 10:29:22;;;;;;;9.00;3.20;;;;;;;26.57;43.82;99741.50;5052926;28;20025;-65
2021/04/07 10:31:55;;;;;;;8.90;2.88;;;;;;;26.59;44.43;99739.34;5062295;28;20379;-66
2021/04/07 10:34:47;;;;;;;9.48;3.10;;;;;;;26.53;44.50;99752.19;5074091;28;20025;-66
2021/04/07 10:37:19;;;;;;;7.45;2.83;;;;;;;26.56;44.77;99743.44;5069876;28;20045;-66
2021/04/07 10:39:44;;;;;;;6.28;2.35;;;;;;;26.50;44.49;99763.72;5073334;28;20028;-66
2021/04/07 10:42:16;;;;;;;9.15;2.95;;;;;;;26.53;43.91;99768.72;5071466;28;20494;-64
2021/04/07 10:44:41;;;;;;;9.23;2.72;;;;;;;26.47;43.59;99775.25;5076305;28;20309;-65
2021/04/07 10:47:16;;;;;;;8.65;3.15;;;;;;;26.44;43.09;99770.25;5072580;28;20032;-66
2021/04/07 10:49:56;;;;;;;7.18;2.67;;;;;;;26.46;43.37;99773.56;5073284;28;20467;-66
2021/04/07 10:52:36;;;;;;;6.70;2.20;;;;;;;26.45;42.96;99777.41;5071462;28;20487;-66
2021/04/07 10:55:10;;;;;;;4.65;1.88;;;;;;;26.36;43.68;99795.44;5072055;28;20016;-65
2021/04/07 10:57:42;;;;;;;4.90;2.20;;;;;;;26.43;43.72;99790.63;5053809;28;20402;-66
2021/04/07 11:00:09;;;;;;;9.50;2.75;;;;;;;26.45;43.63;99785.69;5072090;28;20032;-66
2021/04/07 11:02:42;;;;;;;7.82;2.88;;;;;;;26.52;44.06;99791.84;5072060;28;20035;-66
2021/04/07 11:05:16;;;;;;;5.87;2.80;;;;;;;26.50;44.53;99791.28;5073494;28;20086;-67
2021/04/07 11:07:41;;;;;;;6.38;2.40;;;;;;;26.49;44.43;99811.66;5055624;28;20027;-66
2021/04/07 11:10:09;;;;;;;9.50;3.03;;;;;;;26.49;45.12;99795.13;5072930;28;20020;-65
2021/04/07 11:12:34;;;;;;;6.72;2.38;;;;;;;26.49;45.30;99800.63;5072478;28;20469;-65
2021/04/07 11:15:05;;;;;;;8.02;2.83;;;;;;;26.56;44.99;99812.34;5072939;28;20036;-66
2021/04/07 11:17:30;;;;;;;9.40;2.92;;;;;;;26.54;45.10;99809.00;5067289;28;20059;-67
2021/04/07 11:19:55;;;;;;;8.27;3.00;;;;;;;26.55;45.07;99810.66;5070327;28;20067;-66
2021/04/07 11:22:21;;;;;;;6.88;2.60;;;;;;;26.63;45.96;99824.03;5073951;28;20016;-67
2021/04/07 11:24:46;;;;;;;8.77;3.08;;;;;;;26.65;45.47;99827.34;5071717;28;20028;-68
2021/04/07 11:27:11;;;;;;;6.43;2.47;;;;;;;26.60;45.15;99832.78;5072902;28;20352;-67
2021/04/07 11:29:37;;;;;;;6.82;2.58;;;;;;;26.64;45.63;99828.44;5070016;28;20013;-66
2021/04/07 11:32:04;;;;;;;9.88;2.90;;;;;;;26.54;45.56;99831.06;5054080;28;20056;-67
2021/04/07 11:34:40;;;;;;;10.73;3.00;;;;;;;26.53;45.24;99826.59;5070118;28;20411;-67